Twin Buttes, North Dakota
Current Conditions -  °F | °C
As of 4:15 AM on Tuesday 21 Oct 2014 (Local Time) from KHZE Reporting Station
Clear Clear  
Wind Chill: 43°   Ceiling: Unl
Heat Index: 46°   Visibility: 10mi
Dew Point: 32°   Wind: 7mph
Humidity: 57%   Direction: 50°NE
Pressure: 29.84"   Gusts: NA
Location:  47.343°N, 102.335°W
Report Text: KHZE 211015Z AUTO 05006KT 10SM CLR 08/00 A2984 RMK AO2
Loading
Personal Weather Stations






























Interactive Weather Map
Tropical Storm Tracking
New forecast layout! Learn more

10-Day Weather Forecast

Advertisements
Track Severe Weather on mobile